createdAt,value
2023-05-18T00:02:21.521Z,4.72
2023-05-18T00:04:48.754Z,4.55
2023-05-18T00:07:15.898Z,4.30
2023-05-18T00:09:42.987Z,4.57
2023-05-18T00:12:12.632Z,4.78
2023-05-18T00:14:39.365Z,4.88
2023-05-18T00:17:06.087Z,5.05
2023-05-18T00:19:33.255Z,4.25
2023-05-18T00:22:02.167Z,5.15
2023-05-18T00:24:28.895Z,4.75
2023-05-18T00:26:55.544Z,4.72
2023-05-18T00:29:22.194Z,5.43
2023-05-18T00:31:49.016Z,5.13
2023-05-18T00:34:16.774Z,6.07
2023-05-18T00:36:43.553Z,4.85
2023-05-18T00:39:11.265Z,6.00
2023-05-18T00:41:38.783Z,4.65
2023-05-18T00:44:06.179Z,6.18
2023-05-18T00:46:33.439Z,6.18
2023-05-18T00:49:03.907Z,5.78
2023-05-18T00:51:32.496Z,5.43
2023-05-18T00:54:00.510Z,6.00
2023-05-18T00:56:28.262Z,5.57
2023-05-18T00:58:57.043Z,5.55
2023-05-18T01:01:28.184Z,5.80
2023-05-18T01:04:02.149Z,5.78
2023-05-18T01:06:35.710Z,5.95
2023-05-18T01:09:04.415Z,4.78
2023-05-18T01:11:50.380Z,5.40
2023-05-18T01:14:23.717Z,5.47
2023-05-18T01:17:10.427Z,5.43
2023-05-18T01:19:46.455Z,5.20
2023-05-18T01:22:13.506Z,5.55
2023-05-18T01:24:45.617Z,5.55
2023-05-18T01:27:16.303Z,6.15
2023-05-18T01:29:43.759Z,6.32
2023-05-18T01:32:10.814Z,5.50
2023-05-18T01:34:37.905Z,5.38
2023-05-18T01:37:05.178Z,5.90
2023-05-18T01:39:32.329Z,5.55
2023-05-18T01:42:01.380Z,5.68
2023-05-18T01:44:32.914Z,5.90
2023-05-18T01:47:00.293Z,5.60
2023-05-18T01:49:30.438Z,6.93
2023-05-18T01:51:58.959Z,4.90
2023-05-18T01:54:26.852Z,5.25
2023-05-18T01:56:54.554Z,6.03
2023-05-18T01:59:23.746Z,6.07
2023-05-18T02:01:50.845Z,5.63
2023-05-18T02:04:26.905Z,5.88
2023-05-18T02:06:57.137Z,6.22
2023-05-18T02:09:24.309Z,5.65
2023-05-18T02:11:51.541Z,6.13
2023-05-18T02:14:18.664Z,5.90
2023-05-18T02:16:47.214Z,5.95
2023-05-18T02:19:15.050Z,6.20
2023-05-18T02:21:43.585Z,5.85
2023-05-18T02:24:10.760Z,6.70
2023-05-18T02:26:38.104Z,6.10
2023-05-18T02:29:06.526Z,6.80
2023-05-18T02:31:33.728Z,6.25
2023-05-18T02:34:01.595Z,6.72
2023-05-18T02:36:37.295Z,6.05
2023-05-18T02:39:04.989Z,6.60
2023-05-18T02:41:32.092Z,6.18
2023-05-18T02:43:59.490Z,6.70
2023-05-18T02:46:26.649Z,5.90
2023-05-18T02:48:53.754Z,5.97
2023-05-18T02:51:21.793Z,6.65
2023-05-18T02:53:49.128Z,6.57
2023-05-18T02:56:17.741Z,5.93
2023-05-18T02:58:45.470Z,6.32
2023-05-18T03:01:12.735Z,6.32
2023-05-18T03:03:42.093Z,6.93
2023-05-18T03:06:09.813Z,6.68
2023-05-18T03:08:37.470Z,6.82
2023-05-18T03:11:04.865Z,6.50
2023-05-18T03:13:31.942Z,7.15
2023-05-18T03:15:59.024Z,6.53
2023-05-18T03:18:26.215Z,7.28
2023-05-18T03:20:53.544Z,7.30
2023-05-18T03:23:20.812Z,8.10
2023-05-18T03:25:53.489Z,7.03
2023-05-18T03:28:21.032Z,7.43
2023-05-18T03:30:48.212Z,8.05
2023-05-18T03:33:15.467Z,7.60
2023-05-18T03:35:42.591Z,7.50
2023-05-18T03:38:09.781Z,8.23
2023-05-18T03:40:36.978Z,7.45
2023-05-18T03:43:04.152Z,7.28
2023-05-18T03:45:31.518Z,7.35
2023-05-18T03:47:58.780Z,8.20
2023-05-18T03:50:25.949Z,8.30
2023-05-18T03:52:53.661Z,8.35
2023-05-18T03:55:21.453Z,8.57
2023-05-18T03:57:49.050Z,7.65
2023-05-18T04:00:16.641Z,8.45
2023-05-18T04:02:43.918Z,8.70
2023-05-18T04:05:11.075Z,8.35
2023-05-18T04:07:43.906Z,8.05
2023-05-18T04:10:12.004Z,9.23
2023-05-18T04:12:39.175Z,8.85
2023-05-18T04:15:06.614Z,8.82
2023-05-18T04:17:35.635Z,8.10
2023-05-18T04:20:11.475Z,8.85
2023-05-18T04:22:43.179Z,9.75
2023-05-18T04:25:14.250Z,9.80
2023-05-18T04:27:41.933Z,8.77
2023-05-18T04:30:10.735Z,8.75
2023-05-18T04:32:38.221Z,8.95
2023-05-18T04:35:06.765Z,8.38
2023-05-18T04:37:34.556Z,9.13
2023-05-18T04:40:07.431Z,7.78
2023-05-18T04:42:35.560Z,7.22
2023-05-18T04:45:03.279Z,7.70
2023-05-18T04:47:31.101Z,7.85
2023-05-18T04:49:58.217Z,8.60
2023-05-18T04:52:26.048Z,7.80
2023-05-18T04:54:53.163Z,7.82
2023-05-18T04:57:20.632Z,8.38
2023-05-18T04:59:47.999Z,6.93
2023-05-18T05:02:15.080Z,7.53
2023-05-18T05:04:42.287Z,8.10
2023-05-18T05:07:09.372Z,7.68
2023-05-18T05:09:36.455Z,7.30
2023-05-18T05:12:03.536Z,6.93
2023-05-18T05:14:30.661Z,6.90
2023-05-18T05:16:57.809Z,7.50
2023-05-18T05:19:25.024Z,7.63
2023-05-18T05:21:52.312Z,6.90
2023-05-18T05:24:19.416Z,7.28
2023-05-18T05:26:46.506Z,6.93
2023-05-18T05:29:13.598Z,7.25
2023-05-18T05:31:41.364Z,6.60
2023-05-18T05:34:08.567Z,6.80
2023-05-18T05:36:35.720Z,8.32
2023-05-18T05:39:03.159Z,6.00
2023-05-18T05:41:32.310Z,6.03
2023-05-18T05:43:59.256Z,6.25
2023-05-18T05:46:26.252Z,7.22
2023-05-18T05:48:53.375Z,6.55
2023-05-18T05:51:20.560Z,6.45
2023-05-18T05:53:49.270Z,6.30
2023-05-18T05:56:16.111Z,6.82
2023-05-18T05:58:44.126Z,6.53
2023-05-18T06:01:13.170Z,6.55
2023-05-18T06:03:40.378Z,5.60
2023-05-18T06:06:07.801Z,6.18
2023-05-18T06:08:34.872Z,6.30
2023-05-18T06:11:02.005Z,5.80
2023-05-18T06:13:29.066Z,6.20
2023-05-18T06:15:56.224Z,6.43
2023-05-18T06:18:23.290Z,6.13
2023-05-18T06:20:50.449Z,5.82
2023-05-18T06:23:22.639Z,6.78
2023-05-18T06:25:50.320Z,6.50
2023-05-18T06:28:17.551Z,5.97
2023-05-18T06:30:45.174Z,6.32
2023-05-18T06:33:12.492Z,6.10
2023-05-18T06:35:39.581Z,6.15
2023-05-18T06:38:06.774Z,6.90
2023-05-18T06:40:33.830Z,4.93
2023-05-18T06:43:00.913Z,5.75
2023-05-18T06:45:28.050Z,5.93
2023-05-18T06:47:55.353Z,5.55
2023-05-18T06:50:22.966Z,5.50
2023-05-18T06:52:50.024Z,4.65
2023-05-18T06:55:18.268Z,5.18
2023-05-18T06:57:45.667Z,5.72
2023-05-18T07:00:12.994Z,6.20
2023-05-18T07:02:43.152Z,5.85
2023-05-18T07:05:10.338Z,5.72
2023-05-18T07:07:37.794Z,5.85
2023-05-18T07:10:05.282Z,5.40
2023-05-18T07:12:32.352Z,4.88
2023-05-18T07:14:59.546Z,5.97
2023-05-18T07:17:26.775Z,5.38
2023-05-18T07:19:54.001Z,4.65
2023-05-18T07:22:21.086Z,5.22
2023-05-18T07:24:48.160Z,5.38
2023-05-18T07:27:15.910Z,4.97
2023-05-18T07:29:43.045Z,4.78
2023-05-18T07:32:10.142Z,5.30
2023-05-18T07:34:37.213Z,4.43
2023-05-18T07:37:05.024Z,4.80
2023-05-18T07:39:32.072Z,4.72
2023-05-18T07:41:59.791Z,4.57
2023-05-18T07:44:26.973Z,4.65
2023-05-18T07:46:54.284Z,4.38
2023-05-18T07:49:23.292Z,5.78
2023-05-18T07:51:51.127Z,4.97
2023-05-18T07:54:19.141Z,3.72
2023-05-18T07:56:46.748Z,3.97
2023-05-18T07:59:13.850Z,3.90
2023-05-18T08:01:41.484Z,4.13
2023-05-18T08:04:08.792Z,4.80
2023-05-18T08:06:36.640Z,3.72
2023-05-18T08:09:04.170Z,3.97
2023-05-18T08:11:31.242Z,4.20
2023-05-18T08:13:58.312Z,4.25
2023-05-18T08:16:25.885Z,4.82
2023-05-18T08:18:53.205Z,4.32
2023-05-18T08:21:20.477Z,3.58
2023-05-18T08:23:47.797Z,4.00
2023-05-18T08:26:14.943Z,3.60
2023-05-18T08:28:42.461Z,4.05
2023-05-18T08:31:09.614Z,4.18
2023-05-18T08:33:36.694Z,4.15
2023-05-18T08:36:03.960Z,4.32
2023-05-18T08:38:31.878Z,3.67
2023-05-18T08:41:17.504Z,3.65
2023-05-18T08:43:46.961Z,3.80
2023-05-18T08:46:21.615Z,4.75
2023-05-18T08:48:50.558Z,3.80
2023-05-18T08:51:20.149Z,3.28
2023-05-18T08:53:52.240Z,3.78
2023-05-18T08:56:21.712Z,3.28
2023-05-18T08:58:49.266Z,3.60
2023-05-18T09:01:17.772Z,3.28
2023-05-18T09:03:45.372Z,4.93
2023-05-18T09:06:12.589Z,3.45
2023-05-18T09:08:39.707Z,3.72
2023-05-18T09:11:07.116Z,3.60
2023-05-18T09:13:34.222Z,4.05
2023-05-18T09:16:01.641Z,3.00
2023-05-18T09:18:28.799Z,3.67
2023-05-18T09:20:56.099Z,4.18
2023-05-18T09:23:23.911Z,2.65
2023-05-18T09:25:53.122Z,3.90
2023-05-18T09:28:27.928Z,3.55
2023-05-18T09:30:55.157Z,3.50
2023-05-18T09:33:23.306Z,3.92
2023-05-18T09:35:51.414Z,2.95
2023-05-18T09:38:22.750Z,3.65
2023-05-18T09:40:50.872Z,4.20
2023-05-18T09:43:19.063Z,3.78
2023-05-18T09:45:47.138Z,4.00
2023-05-18T09:48:14.611Z,3.88
2023-05-18T09:50:41.777Z,3.67
2023-05-18T09:53:09.828Z,4.15
2023-05-18T09:55:47.329Z,3.88
2023-05-18T09:58:14.526Z,3.65
2023-05-18T10:00:43.410Z,4.80
2023-05-18T10:03:17.493Z,3.75
2023-05-18T10:05:44.567Z,4.68
2023-05-18T10:08:13.384Z,4.35
2023-05-18T10:10:42.701Z,4.45
2023-05-18T10:13:09.804Z,4.32
2023-05-18T10:15:37.983Z,8.35
2023-05-18T10:18:08.737Z,8.85
2023-05-18T10:20:36.003Z,26.95
2023-05-18T10:23:05.646Z,63.45
2023-05-18T10:25:33.141Z,49.05
2023-05-18T10:28:01.685Z,9.18
2023-05-18T10:30:29.147Z,24.95
2023-05-18T10:32:57.731Z,14.95
2023-05-18T10:35:28.206Z,54.15
2023-05-18T10:37:56.045Z,21.13
2023-05-18T10:40:23.656Z,24.25
2023-05-18T10:42:52.457Z,5.13
2023-05-18T10:45:20.105Z,2.78
2023-05-18T10:47:48.812Z,8.43
2023-05-18T10:50:16.691Z,3.25
2023-05-18T10:52:45.689Z,4.82
2023-05-18T10:55:12.875Z,4.30
2023-05-18T10:57:46.313Z,4.35
2023-05-18T11:00:14.261Z,3.60
2023-05-18T11:02:42.988Z,4.63
2023-05-18T11:05:11.229Z,3.45
2023-05-18T11:07:38.603Z,3.65
2023-05-18T11:10:09.827Z,3.22
2023-05-18T11:12:38.260Z,3.38
2023-05-18T11:15:05.987Z,3.38
2023-05-18T11:17:33.302Z,3.88
2023-05-18T11:20:07.747Z,3.90
2023-05-18T11:22:53.176Z,3.97
2023-05-18T11:25:26.166Z,6.47
2023-05-18T11:27:53.894Z,4.95
2023-05-18T11:30:28.110Z,3.17
2023-05-18T11:33:08.870Z,4.10
2023-05-18T11:35:55.132Z,3.63
2023-05-18T11:38:23.041Z,3.42
2023-05-18T11:40:52.877Z,3.67
2023-05-18T11:43:26.321Z,3.47
2023-05-18T11:45:55.060Z,5.38
2023-05-18T11:48:23.631Z,2.92
2023-05-18T11:50:53.854Z,3.58
2023-05-18T11:53:22.948Z,3.50
2023-05-18T11:55:52.453Z,3.47
2023-05-18T11:58:20.514Z,3.10
2023-05-18T12:00:49.137Z,2.95
2023-05-18T12:03:16.616Z,2.53
2023-05-18T12:05:49.270Z,2.88
2023-05-18T12:08:19.737Z,3.08
2023-05-18T12:10:49.828Z,3.00
2023-05-18T12:13:18.327Z,3.20
2023-05-18T12:15:45.555Z,3.40
2023-05-18T12:18:14.152Z,4.47
2023-05-18T12:20:41.322Z,3.60
2023-05-18T12:23:08.436Z,3.10
2023-05-18T12:25:36.456Z,3.00
2023-05-18T12:28:04.796Z,2.97
2023-05-18T12:30:40.576Z,3.13
2023-05-18T12:33:08.404Z,5.38
2023-05-18T12:35:36.072Z,3.45
2023-05-18T12:38:03.447Z,3.38
2023-05-18T12:40:46.434Z,4.35
2023-05-18T12:43:13.665Z,4.22
2023-05-18T12:45:41.115Z,3.15
2023-05-18T12:48:09.394Z,2.75
2023-05-18T12:50:38.644Z,2.75
2023-05-18T12:53:05.821Z,2.88
2023-05-18T12:55:33.414Z,2.53
2023-05-18T12:58:04.634Z,2.92
2023-05-18T13:00:35.112Z,3.03
2023-05-18T13:03:15.787Z,2.55
2023-05-18T13:05:45.389Z,3.20
2023-05-18T13:08:17.866Z,2.70
2023-05-18T13:10:53.005Z,3.38
2023-05-18T13:13:22.245Z,3.05
2023-05-18T13:15:51.280Z,3.03
2023-05-18T13:18:17.990Z,2.17
2023-05-18T13:20:53.682Z,3.08
2023-05-18T13:23:25.402Z,2.90
2023-05-18T13:25:52.430Z,2.88
2023-05-18T13:28:21.300Z,2.97
2023-05-18T13:30:49.123Z,3.03
2023-05-18T13:33:19.666Z,3.05
2023-05-18T13:35:46.953Z,2.88
2023-05-18T13:38:14.533Z,3.08
2023-05-18T13:40:41.999Z,3.08
2023-05-18T13:43:10.980Z,2.78
2023-05-18T13:45:39.983Z,2.72
2023-05-18T13:48:09.878Z,2.70
2023-05-18T13:50:37.703Z,2.95
2023-05-18T13:53:05.056Z,3.13
2023-05-18T13:55:33.301Z,2.88
2023-05-18T13:58:00.888Z,3.22
2023-05-18T14:00:28.466Z,3.47
2023-05-18T14:02:56.814Z,3.85
2023-05-18T14:05:24.208Z,3.40
2023-05-18T14:07:54.567Z,2.80
2023-05-18T14:10:21.791Z,3.00
2023-05-18T14:12:49.157Z,2.80
2023-05-18T14:15:16.547Z,3.22
2023-05-18T14:17:44.197Z,2.97
2023-05-18T14:20:12.283Z,2.70
2023-05-18T14:22:39.468Z,3.58
2023-05-18T14:25:06.687Z,2.72
2023-05-18T14:27:34.036Z,2.95
2023-05-18T14:30:01.481Z,2.90
2023-05-18T14:32:28.734Z,3.00
2023-05-18T14:34:57.861Z,3.15
2023-05-18T14:37:25.202Z,2.90
2023-05-18T14:39:52.298Z,3.30
2023-05-18T14:42:19.375Z,2.90
2023-05-18T14:44:47.028Z,3.38
2023-05-18T14:47:14.195Z,2.47
2023-05-18T14:49:41.303Z,2.97
2023-05-18T14:52:08.401Z,3.33
2023-05-18T14:54:36.503Z,2.63
2023-05-18T14:57:03.657Z,3.33
2023-05-18T14:59:30.810Z,2.40
2023-05-18T15:01:57.944Z,3.05
2023-05-18T15:04:25.696Z,3.05
2023-05-18T15:06:52.855Z,2.85
2023-05-18T15:09:20.163Z,3.28
2023-05-18T15:11:47.223Z,3.08
2023-05-18T15:14:14.324Z,2.67
2023-05-18T15:16:42.238Z,3.40
2023-05-18T15:19:09.518Z,2.58
2023-05-18T15:21:36.716Z,3.00
2023-05-18T15:24:04.012Z,2.75
2023-05-18T15:26:31.222Z,2.65
2023-05-18T15:28:58.330Z,2.60
2023-05-18T15:31:25.748Z,2.58
2023-05-18T15:33:52.856Z,2.65
2023-05-18T15:36:21.499Z,2.40
2023-05-18T15:38:48.566Z,2.35
2023-05-18T15:41:15.880Z,2.40
2023-05-18T15:43:43.529Z,2.22
2023-05-18T15:46:11.013Z,2.15
2023-05-18T15:48:38.623Z,2.15
2023-05-18T15:51:06.299Z,1.95
2023-05-18T15:53:33.437Z,1.83
2023-05-18T15:56:00.579Z,2.65
2023-05-18T15:58:27.693Z,2.00
2023-05-18T16:00:54.967Z,1.90
2023-05-18T16:03:22.325Z,2.00
2023-05-18T16:05:50.154Z,2.22
2023-05-18T16:08:17.274Z,2.50
2023-05-18T16:10:44.328Z,2.60
2023-05-18T16:13:11.417Z,2.30
2023-05-18T16:15:38.640Z,2.30
2023-05-18T16:18:06.028Z,2.10
2023-05-18T16:20:33.421Z,2.13
2023-05-18T16:23:00.779Z,2.15
2023-05-18T16:25:29.008Z,2.10
2023-05-18T16:27:56.429Z,2.72
2023-05-18T16:30:23.661Z,2.60
2023-05-18T16:32:50.873Z,2.30
2023-05-18T16:35:17.973Z,2.20
2023-05-18T16:37:45.060Z,2.20
2023-05-18T16:40:12.263Z,2.55
2023-05-18T16:42:39.343Z,2.03
2023-05-18T16:45:06.557Z,1.98
2023-05-18T16:47:33.704Z,2.25
2023-05-18T16:50:01.044Z,2.47
2023-05-18T16:52:28.309Z,1.90
2023-05-18T16:54:55.440Z,2.28
2023-05-18T16:57:22.533Z,2.47
2023-05-18T16:59:49.685Z,2.60
2023-05-18T17:02:18.115Z,2.47
2023-05-18T17:04:45.890Z,2.65
2023-05-18T17:07:13.455Z,2.15
2023-05-18T17:09:42.307Z,2.15
2023-05-18T17:12:10.356Z,2.00
2023-05-18T17:14:37.762Z,2.50
2023-05-18T17:17:05.762Z,2.38
2023-05-18T17:19:34.888Z,2.47
2023-05-18T17:22:02.684Z,2.53
2023-05-18T17:24:29.739Z,2.53
2023-05-18T17:26:56.870Z,2.38
2023-05-18T17:29:23.967Z,2.22
2023-05-18T17:31:51.056Z,2.50
2023-05-18T17:34:18.305Z,1.95
2023-05-18T17:36:45.678Z,2.15
2023-05-18T17:39:13.008Z,1.80
2023-05-18T17:41:40.081Z,2.47
2023-05-18T17:44:07.198Z,2.38
2023-05-18T17:46:34.340Z,2.90
2023-05-18T17:49:03.734Z,2.20
2023-05-18T17:51:31.514Z,2.20
2023-05-18T17:53:58.710Z,2.30
2023-05-18T17:56:28.018Z,2.30
2023-05-18T17:58:55.158Z,2.55
2023-05-18T18:01:22.263Z,2.33
2023-05-18T18:03:49.545Z,2.25
2023-05-18T18:06:22.155Z,2.63
2023-05-18T18:08:49.858Z,2.20
2023-05-18T18:11:17.174Z,2.20
2023-05-18T18:13:44.262Z,2.50
2023-05-18T18:16:11.442Z,2.70
2023-05-18T18:18:39.053Z,2.53
2023-05-18T18:21:06.561Z,2.50
2023-05-18T18:23:34.175Z,2.40
2023-05-18T18:26:01.630Z,2.90
2023-05-18T18:28:29.554Z,2.55
2023-05-18T18:30:57.277Z,2.30
2023-05-18T18:33:26.152Z,2.17
2023-05-18T18:35:54.119Z,2.55
2023-05-18T18:38:21.108Z,2.30
2023-05-18T18:40:47.902Z,2.78
2023-05-18T18:43:14.937Z,2.67
2023-05-18T18:45:41.839Z,2.42
2023-05-18T18:48:08.978Z,2.67
2023-05-18T18:50:35.758Z,2.65
2023-05-18T18:53:02.431Z,2.30
2023-05-18T18:55:29.294Z,2.75
2023-05-18T18:57:59.365Z,2.42
2023-05-18T19:00:26.467Z,2.38
2023-05-18T19:02:53.525Z,2.67
2023-05-18T19:05:23.434Z,2.28
2023-05-18T19:07:54.932Z,2.85
2023-05-18T19:10:22.920Z,2.20
2023-05-18T19:12:50.084Z,2.60
2023-05-18T19:15:17.259Z,2.33
2023-05-18T19:17:52.079Z,2.65
2023-05-18T19:20:19.625Z,2.97
2023-05-18T19:22:46.747Z,3.03
2023-05-18T19:25:13.813Z,2.88
2023-05-18T19:27:40.956Z,2.55
2023-05-18T19:30:08.405Z,2.53
2023-05-18T19:32:35.565Z,2.35
2023-05-18T19:35:02.701Z,2.53
2023-05-18T19:37:29.734Z,2.38
2023-05-18T19:39:56.800Z,2.70
2023-05-18T19:42:23.888Z,2.40
2023-05-18T19:44:50.962Z,2.60
2023-05-18T19:47:18.053Z,2.22
2023-05-18T19:49:45.180Z,2.55
2023-05-18T19:52:12.304Z,2.30
2023-05-18T19:54:39.477Z,2.33
2023-05-18T19:57:06.637Z,2.17
2023-05-18T19:59:33.798Z,2.80
2023-05-18T20:02:03.498Z,2.30
2023-05-18T20:04:33.513Z,2.67
2023-05-18T20:07:00.994Z,2.72
2023-05-18T20:09:28.697Z,3.10
2023-05-18T20:11:56.549Z,2.47
2023-05-18T20:14:23.981Z,3.47
2023-05-18T20:16:56.097Z,2.47
2023-05-18T20:19:23.390Z,2.30
2023-05-18T20:21:50.633Z,2.58
2023-05-18T20:24:17.795Z,2.28
2023-05-18T20:26:44.921Z,2.47
2023-05-18T20:29:12.001Z,2.40
2023-05-18T20:31:39.224Z,2.50
2023-05-18T20:34:06.985Z,2.78
2023-05-18T20:36:35.794Z,2.30
2023-05-18T20:39:03.791Z,2.13
2023-05-18T20:41:30.549Z,2.00
2023-05-18T20:43:57.256Z,2.60
2023-05-18T20:46:24.842Z,2.58
2023-05-18T20:48:55.262Z,2.92
2023-05-18T20:51:23.074Z,1.90
2023-05-18T20:53:50.058Z,2.70
2023-05-18T20:56:17.966Z,2.28
2023-05-18T20:58:48.350Z,2.63
2023-05-18T21:01:16.285Z,2.90
2023-05-18T21:03:45.369Z,2.88
2023-05-18T21:06:15.198Z,2.67
2023-05-18T21:08:42.348Z,2.63
2023-05-18T21:11:09.611Z,2.33
2023-05-18T21:13:37.112Z,2.70
2023-05-18T21:16:06.452Z,3.10
2023-05-18T21:18:34.372Z,3.10
2023-05-18T21:21:02.151Z,2.70
2023-05-18T21:23:29.347Z,3.05
2023-05-18T21:25:57.174Z,3.28
2023-05-18T21:28:24.884Z,4.13
2023-05-18T21:30:52.553Z,2.90
2023-05-18T21:33:19.793Z,2.80
2023-05-18T21:35:47.022Z,3.40
2023-05-18T21:38:14.197Z,3.50
2023-05-18T21:40:43.543Z,3.70
2023-05-18T21:43:11.230Z,3.85
2023-05-18T21:45:38.340Z,3.53
2023-05-18T21:48:05.634Z,4.25
2023-05-18T21:50:35.852Z,4.30
2023-05-18T21:53:03.306Z,4.03
2023-05-18T21:55:31.179Z,4.30
2023-05-18T21:57:58.266Z,3.33
2023-05-18T22:00:25.388Z,4.60
2023-05-18T22:02:52.574Z,4.10
2023-05-18T22:05:19.755Z,4.10
2023-05-18T22:07:46.836Z,4.25
2023-05-18T22:10:13.990Z,4.10
2023-05-18T22:12:43.238Z,4.22
2023-05-18T22:15:10.654Z,4.55
2023-05-18T22:17:38.777Z,3.92
2023-05-18T22:20:09.507Z,4.05
2023-05-18T22:22:36.678Z,3.95
2023-05-18T22:25:03.774Z,4.20
2023-05-18T22:27:31.085Z,4.10
2023-05-18T22:29:58.221Z,4.47
2023-05-18T22:32:25.487Z,3.67
2023-05-18T22:34:53.531Z,4.97
2023-05-18T22:37:20.707Z,4.85
2023-05-18T22:39:47.768Z,4.57
2023-05-18T22:42:14.837Z,4.32
2023-05-18T22:44:41.893Z,4.35
2023-05-18T22:47:09.384Z,4.30
2023-05-18T22:49:36.761Z,5.05
2023-05-18T22:52:04.431Z,5.18
2023-05-18T22:54:31.758Z,4.47
2023-05-18T22:57:01.592Z,4.75
2023-05-18T22:59:28.703Z,4.53
2023-05-18T23:01:55.902Z,4.65
2023-05-18T23:04:23.052Z,5.10
2023-05-18T23:06:51.432Z,5.47
2023-05-18T23:09:19.906Z,4.90
2023-05-18T23:11:48.312Z,4.38
2023-05-18T23:14:15.593Z,4.57
2023-05-18T23:16:43.178Z,5.18
2023-05-18T23:19:12.482Z,4.72
2023-05-18T23:21:42.803Z,4.25
2023-05-18T23:24:12.090Z,4.97
2023-05-18T23:26:42.476Z,4.32
2023-05-18T23:29:09.741Z,5.25
2023-05-18T23:31:37.074Z,4.60
2023-05-18T23:34:04.588Z,4.97
2023-05-18T23:36:35.108Z,4.95
2023-05-18T23:39:02.578Z,5.47
2023-05-18T23:41:31.180Z,4.43
2023-05-18T23:43:58.838Z,5.65
2023-05-18T23:46:26.464Z,4.75
2023-05-18T23:48:54.029Z,5.00
2023-05-18T23:51:21.731Z,4.60
2023-05-18T23:53:49.529Z,5.07
2023-05-18T23:56:16.715Z,4.95
2023-05-18T23:58:47.264Z,5.05
